sensor_id;sensor_type;location;lat;lon;timestamp;P1;durP1;ratioP1;P2;durP2;ratioP2
19830;SDS011;10076;52.008;4.708;2023-04-03T00:00:40;1.43;;;1.07;;
19830;SDS011;10076;52.008;4.708;2023-04-03T00:03:06;1.17;;;0.80;;
19830;SDS011;10076;52.008;4.708;2023-04-03T00:05:31;2.20;;;0.80;;
19830;SDS011;10076;52.008;4.708;2023-04-03T00:07:57;1.60;;;0.90;;
19830;SDS011;10076;52.008;4.708;2023-04-03T00:10:22;2.20;;;0.73;;
19830;SDS011;10076;52.008;4.708;2023-04-03T00:12:48;2.47;;;0.80;;
19830;SDS011;10076;52.008;4.708;2023-04-03T00:15:13;3.40;;;0.80;;
19830;SDS011;10076;52.008;4.708;2023-04-03T00:17:39;1.80;;;0.67;;
19830;SDS011;10076;52.008;4.708;2023-04-03T00:20:04;1.10;;;0.80;;
19830;SDS011;10076;52.008;4.708;2023-04-03T00:22:30;1.00;;;1.00;;
19830;SDS011;10076;52.008;4.708;2023-04-03T00:24:56;2.30;;;1.00;;
19830;SDS011;10076;52.008;4.708;2023-04-03T00:27:21;1.90;;;1.00;;
19830;SDS011;10076;52.008;4.708;2023-04-03T00:29:46;1.10;;;1.00;;
19830;SDS011;10076;52.008;4.708;2023-04-03T00:32:12;2.20;;;0.93;;
19830;SDS011;10076;52.008;4.708;2023-04-03T00:34:37;1.90;;;0.73;;
19830;SDS011;10076;52.008;4.708;2023-04-03T00:37:03;0.90;;;0.90;;
19830;SDS011;10076;52.008;4.708;2023-04-03T00:39:28;0.93;;;0.83;;
19830;SDS011;10076;52.008;4.708;2023-04-03T00:41:53;0.87;;;0.83;;
19830;SDS011;10076;52.008;4.708;2023-04-03T00:44:23;1.47;;;0.87;;
19830;SDS011;10076;52.008;4.708;2023-04-03T00:47:05;1.90;;;0.93;;
19830;SDS011;10076;52.008;4.708;2023-04-03T00:49:33;1.87;;;0.63;;
19830;SDS011;10076;52.008;4.708;2023-04-03T00:51:59;0.73;;;0.70;;
19830;SDS011;10076;52.008;4.708;2023-04-03T00:54:25;1.23;;;0.97;;
19830;SDS011;10076;52.008;4.708;2023-04-03T00:56:51;4.50;;;0.80;;
19830;SDS011;10076;52.008;4.708;2023-04-03T00:59:21;2.43;;;0.90;;
19830;SDS011;10076;52.008;4.708;2023-04-03T01:01:52;1.13;;;1.00;;
19830;SDS011;10076;52.008;4.708;2023-04-03T01:04:27;1.13;;;0.80;;
19830;SDS011;10076;52.008;4.708;2023-04-03T01:06:54;1.40;;;0.87;;
19830;SDS011;10076;52.008;4.708;2023-04-03T01:09:21;3.50;;;1.20;;
19830;SDS011;10076;52.008;4.708;2023-04-03T01:11:47;1.57;;;0.90;;
19830;SDS011;10076;52.008;4.708;2023-04-03T01:14:12;1.33;;;0.70;;
19830;SDS011;10076;52.008;4.708;2023-04-03T01:16:37;0.73;;;0.70;;
19830;SDS011;10076;52.008;4.708;2023-04-03T01:19:05;1.27;;;1.00;;
19830;SDS011;10076;52.008;4.708;2023-04-03T01:26:58;1.57;;;0.93;;
19830;SDS011;10076;52.008;4.708;2023-04-03T01:29:25;1.60;;;0.80;;
19830;SDS011;10076;52.008;4.708;2023-04-03T01:31:51;2.63;;;0.90;;
19830;SDS011;10076;52.008;4.708;2023-04-03T01:34:22;0.90;;;0.83;;
19830;SDS011;10076;52.008;4.708;2023-04-03T01:36:48;2.30;;;1.00;;
19830;SDS011;10076;52.008;4.708;2023-04-03T01:39:13;1.90;;;0.90;;
19830;SDS011;10076;52.008;4.708;2023-04-03T01:41:39;1.00;;;0.90;;
19830;SDS011;10076;52.008;4.708;2023-04-03T01:44:04;1.23;;;0.80;;
19830;SDS011;10076;52.008;4.708;2023-04-03T01:46:30;1.37;;;0.70;;
19830;SDS011;10076;52.008;4.708;2023-04-03T01:48:56;3.40;;;1.10;;
19830;SDS011;10076;52.008;4.708;2023-04-03T01:51:21;1.97;;;1.20;;
19830;SDS011;10076;52.008;4.708;2023-04-03T01:53:46;1.83;;;0.80;;
19830;SDS011;10076;52.008;4.708;2023-04-03T01:56:12;1.60;;;1.07;;
19830;SDS011;10076;52.008;4.708;2023-04-03T01:58:37;2.80;;;1.23;;
19830;SDS011;10076;52.008;4.708;2023-04-03T02:01:03;2.40;;;1.43;;
19830;SDS011;10076;52.008;4.708;2023-04-03T02:03:29;0.90;;;0.90;;
19830;SDS011;10076;52.008;4.708;2023-04-03T02:05:54;0.73;;;0.67;;
19830;SDS011;10076;52.008;4.708;2023-04-03T02:08:20;2.57;;;0.90;;
19830;SDS011;10076;52.008;4.708;2023-04-03T02:10:49;1.80;;;1.00;;
19830;SDS011;10076;52.008;4.708;2023-04-03T02:13:15;1.50;;;1.27;;
19830;SDS011;10076;52.008;4.708;2023-04-03T02:15:41;2.33;;;0.80;;
19830;SDS011;10076;52.008;4.708;2023-04-03T02:18:07;1.00;;;0.90;;
19830;SDS011;10076;52.008;4.708;2023-04-03T02:20:32;3.03;;;0.93;;
19830;SDS011;10076;52.008;4.708;2023-04-03T02:22:58;1.07;;;1.00;;
19830;SDS011;10076;52.008;4.708;2023-04-03T02:25:24;0.93;;;0.80;;
19830;SDS011;10076;52.008;4.708;2023-04-03T02:27:49;2.20;;;1.30;;
19830;SDS011;10076;52.008;4.708;2023-04-03T02:30:15;1.00;;;0.87;;
19830;SDS011;10076;52.008;4.708;2023-04-03T02:32:41;0.77;;;0.77;;
19830;SDS011;10076;52.008;4.708;2023-04-03T02:35:08;1.00;;;1.00;;
19830;SDS011;10076;52.008;4.708;2023-04-03T02:37:34;2.53;;;1.00;;
19830;SDS011;10076;52.008;4.708;2023-04-03T02:39:59;0.80;;;0.80;;
19830;SDS011;10076;52.008;4.708;2023-04-03T02:42:25;0.87;;;0.87;;
19830;SDS011;10076;52.008;4.708;2023-04-03T02:44:51;1.17;;;0.80;;
19830;SDS011;10076;52.008;4.708;2023-04-03T02:47:16;2.40;;;1.10;;
19830;SDS011;10076;52.008;4.708;2023-04-03T02:49:41;2.80;;;1.40;;
19830;SDS011;10076;52.008;4.708;2023-04-03T02:52:09;3.03;;;1.30;;
19830;SDS011;10076;52.008;4.708;2023-04-03T02:54:35;1.37;;;1.10;;
19830;SDS011;10076;52.008;4.708;2023-04-03T02:57:00;1.20;;;0.90;;
19830;SDS011;10076;52.008;4.708;2023-04-03T02:59:26;1.07;;;1.00;;
19830;SDS011;10076;52.008;4.708;2023-04-03T03:01:51;1.20;;;0.73;;
19830;SDS011;10076;52.008;4.708;2023-04-03T03:04:16;0.90;;;0.90;;
19830;SDS011;10076;52.008;4.708;2023-04-03T03:06:42;1.07;;;0.97;;
19830;SDS011;10076;52.008;4.708;2023-04-03T03:09:07;0.80;;;0.80;;
19830;SDS011;10076;52.008;4.708;2023-04-03T03:11:32;0.90;;;0.90;;
19830;SDS011;10076;52.008;4.708;2023-04-03T03:13:58;1.70;;;0.83;;
19830;SDS011;10076;52.008;4.708;2023-04-03T03:16:23;2.57;;;1.10;;
19830;SDS011;10076;52.008;4.708;2023-04-03T03:18:49;2.10;;;1.20;;
19830;SDS011;10076;52.008;4.708;2023-04-03T03:21:14;2.37;;;1.33;;
19830;SDS011;10076;52.008;4.708;2023-04-03T03:23:40;5.47;;;0.90;;
19830;SDS011;10076;52.008;4.708;2023-04-03T03:26:06;1.07;;;0.70;;
19830;SDS011;10076;52.008;4.708;2023-04-03T03:28:35;0.87;;;0.87;;
19830;SDS011;10076;52.008;4.708;2023-04-03T03:31:03;1.00;;;0.90;;
19830;SDS011;10076;52.008;4.708;2023-04-03T03:33:29;2.63;;;1.20;;
19830;SDS011;10076;52.008;4.708;2023-04-03T03:35:54;5.07;;;0.87;;
19830;SDS011;10076;52.008;4.708;2023-04-03T03:38:20;1.00;;;0.80;;
19830;SDS011;10076;52.008;4.708;2023-04-03T03:40:49;1.07;;;0.83;;
19830;SDS011;10076;52.008;4.708;2023-04-03T03:43:15;0.80;;;0.80;;
19830;SDS011;10076;52.008;4.708;2023-04-03T03:45:41;1.00;;;0.90;;
19830;SDS011;10076;52.008;4.708;2023-04-03T03:48:07;2.10;;;1.27;;
19830;SDS011;10076;52.008;4.708;2023-04-03T03:50:32;1.73;;;1.20;;
19830;SDS011;10076;52.008;4.708;2023-04-03T03:52:58;6.00;;;1.87;;
19830;SDS011;10076;52.008;4.708;2023-04-03T03:55:23;1.80;;;1.07;;
19830;SDS011;10076;52.008;4.708;2023-04-03T03:57:49;1.10;;;0.87;;
19830;SDS011;10076;52.008;4.708;2023-04-03T04:00:14;1.67;;;1.30;;
19830;SDS011;10076;52.008;4.708;2023-04-03T04:02:40;2.37;;;1.27;;
19830;SDS011;10076;52.008;4.708;2023-04-03T04:05:06;3.50;;;0.90;;
19830;SDS011;10076;52.008;4.708;2023-04-03T04:07:31;1.87;;;0.83;;
19830;SDS011;10076;52.008;4.708;2023-04-03T04:09:56;3.20;;;0.90;;
19830;SDS011;10076;52.008;4.708;2023-04-03T04:12:22;1.33;;;1.23;;
19830;SDS011;10076;52.008;4.708;2023-04-03T04:14:47;2.13;;;1.20;;
19830;SDS011;10076;52.008;4.708;2023-04-03T04:17:13;1.70;;;1.03;;
19830;SDS011;10076;52.008;4.708;2023-04-03T04:19:38;3.47;;;0.83;;
19830;SDS011;10076;52.008;4.708;2023-04-03T04:22:04;1.03;;;0.80;;
19830;SDS011;10076;52.008;4.708;2023-04-03T04:24:29;1.37;;;1.17;;
19830;SDS011;10076;52.008;4.708;2023-04-03T04:26:55;1.87;;;1.40;;
19830;SDS011;10076;52.008;4.708;2023-04-03T04:29:20;0.87;;;0.87;;
19830;SDS011;10076;52.008;4.708;2023-04-03T04:31:46;2.33;;;1.10;;
19830;SDS011;10076;52.008;4.708;2023-04-03T04:34:11;1.30;;;1.20;;
19830;SDS011;10076;52.008;4.708;2023-04-03T04:36:38;1.93;;;1.20;;
19830;SDS011;10076;52.008;4.708;2023-04-03T04:39:03;1.30;;;1.10;;
19830;SDS011;10076;52.008;4.708;2023-04-03T04:41:30;2.83;;;1.03;;
19830;SDS011;10076;52.008;4.708;2023-04-03T04:43:55;2.63;;;1.10;;
19830;SDS011;10076;52.008;4.708;2023-04-03T04:46:21;1.07;;;0.97;;
19830;SDS011;10076;52.008;4.708;2023-04-03T04:48:46;1.20;;;1.10;;
19830;SDS011;10076;52.008;4.708;2023-04-03T04:51:11;3.27;;;1.40;;
19830;SDS011;10076;52.008;4.708;2023-04-03T04:53:37;0.97;;;0.97;;
19830;SDS011;10076;52.008;4.708;2023-04-03T04:56:02;1.63;;;1.13;;
19830;SDS011;10076;52.008;4.708;2023-04-03T04:58:28;1.30;;;1.20;;
19830;SDS011;10076;52.008;4.708;2023-04-03T05:01:00;4.07;;;1.20;;
19830;SDS011;10076;52.008;4.708;2023-04-03T05:03:30;3.27;;;1.57;;
19830;SDS011;10076;52.008;4.708;2023-04-03T05:05:56;1.87;;;1.27;;
19830;SDS011;10076;52.008;4.708;2023-04-03T05:08:22;1.10;;;1.00;;
19830;SDS011;10076;52.008;4.708;2023-04-03T05:10:47;3.57;;;1.30;;
19830;SDS011;10076;52.008;4.708;2023-04-03T05:13:13;1.57;;;1.43;;
19830;SDS011;10076;52.008;4.708;2023-04-03T05:15:39;2.30;;;1.33;;
19830;SDS011;10076;52.008;4.708;2023-04-03T05:18:04;2.57;;;1.60;;
19830;SDS011;10076;52.008;4.708;2023-04-03T05:20:30;2.53;;;1.20;;
19830;SDS011;10076;52.008;4.708;2023-04-03T05:22:56;1.00;;;0.90;;
19830;SDS011;10076;52.008;4.708;2023-04-03T05:25:21;1.30;;;1.20;;
19830;SDS011;10076;52.008;4.708;2023-04-03T05:27:48;2.97;;;1.20;;
19830;SDS011;10076;52.008;4.708;2023-04-03T05:30:13;2.10;;;1.13;;
19830;SDS011;10076;52.008;4.708;2023-04-03T05:32:39;4.00;;;1.90;;
19830;SDS011;10076;52.008;4.708;2023-04-03T05:35:05;1.47;;;1.10;;
19830;SDS011;10076;52.008;4.708;2023-04-03T05:37:31;2.03;;;1.13;;
19830;SDS011;10076;52.008;4.708;2023-04-03T05:39:56;5.23;;;1.30;;
19830;SDS011;10076;52.008;4.708;2023-04-03T05:42:21;1.47;;;1.37;;
19830;SDS011;10076;52.008;4.708;2023-04-03T05:44:47;1.80;;;1.27;;
19830;SDS011;10076;52.008;4.708;2023-04-03T05:47:12;2.40;;;1.50;;
19830;SDS011;10076;52.008;4.708;2023-04-03T05:49:37;4.07;;;1.20;;
19830;SDS011;10076;52.008;4.708;2023-04-03T05:52:05;2.00;;;1.30;;
19830;SDS011;10076;52.008;4.708;2023-04-03T05:54:35;1.83;;;1.53;;
19830;SDS011;10076;52.008;4.708;2023-04-03T05:57:00;0.80;;;0.80;;
19830;SDS011;10076;52.008;4.708;2023-04-03T05:59:25;1.83;;;1.63;;
19830;SDS011;10076;52.008;4.708;2023-04-03T06:01:51;3.13;;;1.87;;
19830;SDS011;10076;52.008;4.708;2023-04-03T06:04:17;4.27;;;2.27;;
19830;SDS011;10076;52.008;4.708;2023-04-03T06:06:44;2.03;;;1.30;;
19830;SDS011;10076;52.008;4.708;2023-04-03T06:09:14;2.47;;;1.43;;
19830;SDS011;10076;52.008;4.708;2023-04-03T06:11:41;6.30;;;1.53;;
19830;SDS011;10076;52.008;4.708;2023-04-03T06:14:06;1.70;;;1.23;;
19830;SDS011;10076;52.008;4.708;2023-04-03T06:16:32;6.20;;;2.13;;
19830;SDS011;10076;52.008;4.708;2023-04-03T06:18:58;3.17;;;1.83;;
19830;SDS011;10076;52.008;4.708;2023-04-03T06:21:23;2.53;;;2.10;;
19830;SDS011;10076;52.008;4.708;2023-04-03T06:23:49;3.77;;;1.80;;
19830;SDS011;10076;52.008;4.708;2023-04-03T06:26:14;2.80;;;1.47;;
19830;SDS011;10076;52.008;4.708;2023-04-03T06:28:39;2.03;;;1.27;;
19830;SDS011;10076;52.008;4.708;2023-04-03T06:31:05;1.10;;;1.00;;
19830;SDS011;10076;52.008;4.708;2023-04-03T06:33:30;1.77;;;1.40;;
19830;SDS011;10076;52.008;4.708;2023-04-03T06:35:56;1.37;;;1.00;;
19830;SDS011;10076;52.008;4.708;2023-04-03T06:38:23;3.53;;;1.50;;
19830;SDS011;10076;52.008;4.708;2023-04-03T06:40:48;1.30;;;1.20;;
19830;SDS011;10076;52.008;4.708;2023-04-03T06:43:13;1.97;;;1.27;;
19830;SDS011;10076;52.008;4.708;2023-04-03T06:45:39;1.87;;;1.40;;
19830;SDS011;10076;52.008;4.708;2023-04-03T06:48:04;3.33;;;1.57;;
19830;SDS011;10076;52.008;4.708;2023-04-03T06:50:30;3.00;;;1.83;;
19830;SDS011;10076;52.008;4.708;2023-04-03T06:52:56;4.83;;;1.20;;
19830;SDS011;10076;52.008;4.708;2023-04-03T06:55:21;1.43;;;1.20;;
19830;SDS011;10076;52.008;4.708;2023-04-03T06:57:46;3.37;;;1.60;;
19830;SDS011;10076;52.008;4.708;2023-04-03T07:00:12;3.80;;;1.37;;
19830;SDS011;10076;52.008;4.708;2023-04-03T07:02:38;4.30;;;1.67;;
19830;SDS011;10076;52.008;4.708;2023-04-03T07:05:03;3.80;;;1.40;;
19830;SDS011;10076;52.008;4.708;2023-04-03T07:07:29;13.50;;;2.00;;
19830;SDS011;10076;52.008;4.708;2023-04-03T07:09:54;3.90;;;2.17;;
19830;SDS011;10076;52.008;4.708;2023-04-03T07:12:20;3.77;;;2.03;;
19830;SDS011;10076;52.008;4.708;2023-04-03T07:14:45;4.20;;;2.23;;
19830;SDS011;10076;52.008;4.708;2023-04-03T07:17:10;3.03;;;1.50;;
19830;SDS011;10076;52.008;4.708;2023-04-03T07:19:36;2.83;;;1.50;;
19830;SDS011;10076;52.008;4.708;2023-04-03T07:22:01;2.70;;;1.53;;
19830;SDS011;10076;52.008;4.708;2023-04-03T07:24:27;2.00;;;1.13;;
19830;SDS011;10076;52.008;4.708;2023-04-03T07:26:52;1.23;;;1.03;;
19830;SDS011;10076;52.008;4.708;2023-04-03T07:29:18;4.03;;;1.53;;
19830;SDS011;10076;52.008;4.708;2023-04-03T07:31:46;4.73;;;1.30;;
19830;SDS011;10076;52.008;4.708;2023-04-03T07:34:12;4.07;;;1.50;;
19830;SDS011;10076;52.008;4.708;2023-04-03T07:36:37;4.07;;;1.20;;
19830;SDS011;10076;52.008;4.708;2023-04-03T07:39:02;1.20;;;1.00;;
19830;SDS011;10076;52.008;4.708;2023-04-03T07:41:28;4.90;;;1.30;;
19830;SDS011;10076;52.008;4.708;2023-04-03T07:43:55;2.13;;;1.33;;
19830;SDS011;10076;52.008;4.708;2023-04-03T07:46:21;1.87;;;1.00;;
19830;SDS011;10076;52.008;4.708;2023-04-03T07:48:47;1.97;;;1.43;;
19830;SDS011;10076;52.008;4.708;2023-04-03T07:51:12;2.13;;;1.60;;
19830;SDS011;10076;52.008;4.708;2023-04-03T07:53:38;2.63;;;1.43;;
19830;SDS011;10076;52.008;4.708;2023-04-03T07:56:03;2.00;;;1.03;;
19830;SDS011;10076;52.008;4.708;2023-04-03T07:58:29;2.07;;;1.23;;
19830;SDS011;10076;52.008;4.708;2023-04-03T08:00:54;4.27;;;1.30;;
19830;SDS011;10076;52.008;4.708;2023-04-03T08:03:20;3.57;;;1.20;;
19830;SDS011;10076;52.008;4.708;2023-04-03T08:05:46;4.23;;;1.50;;
19830;SDS011;10076;52.008;4.708;2023-04-03T08:08:14;1.20;;;1.10;;
19830;SDS011;10076;52.008;4.708;2023-04-03T08:10:41;3.03;;;1.37;;
19830;SDS011;10076;52.008;4.708;2023-04-03T08:13:07;2.30;;;1.57;;
19830;SDS011;10076;52.008;4.708;2023-04-03T08:15:32;4.93;;;1.30;;
19830;SDS011;10076;52.008;4.708;2023-04-03T08:17:58;1.67;;;1.47;;
19830;SDS011;10076;52.008;4.708;2023-04-03T08:20:25;1.47;;;1.07;;
19830;SDS011;10076;52.008;4.708;2023-04-03T08:22:51;2.60;;;1.00;;
19830;SDS011;10076;52.008;4.708;2023-04-03T08:25:16;5.67;;;1.67;;
19830;SDS011;10076;52.008;4.708;2023-04-03T08:27:42;3.13;;;1.37;;
19830;SDS011;10076;52.008;4.708;2023-04-03T08:30:08;2.10;;;1.27;;
19830;SDS011;10076;52.008;4.708;2023-04-03T08:32:34;3.43;;;1.10;;
19830;SDS011;10076;52.008;4.708;2023-04-03T08:35:01;1.00;;;0.80;;
19830;SDS011;10076;52.008;4.708;2023-04-03T08:37:26;3.13;;;1.30;;
19830;SDS011;10076;52.008;4.708;2023-04-03T08:39:52;1.80;;;1.10;;
19830;SDS011;10076;52.008;4.708;2023-04-03T08:50:17;1.30;;;1.07;;
19830;SDS011;10076;52.008;4.708;2023-04-03T08:52:52;1.37;;;0.97;;
19830;SDS011;10076;52.008;4.708;2023-04-03T08:57:49;1.80;;;1.00;;
19830;SDS011;10076;52.008;4.708;2023-04-03T09:00:20;1.03;;;0.93;;
19830;SDS011;10076;52.008;4.708;2023-04-03T09:02:49;4.90;;;1.10;;
19830;SDS011;10076;52.008;4.708;2023-04-03T09:05:20;2.20;;;0.90;;
19830;SDS011;10076;52.008;4.708;2023-04-03T09:07:59;1.03;;;0.67;;
19830;SDS011;10076;52.008;4.708;2023-04-03T09:10:28;2.93;;;1.03;;
19830;SDS011;10076;52.008;4.708;2023-04-03T09:15:50;2.20;;;1.00;;
19830;SDS011;10076;52.008;4.708;2023-04-03T09:18:32;1.00;;;0.70;;
19830;SDS011;10076;52.008;4.708;2023-04-03T09:24:09;0.93;;;0.70;;
19830;SDS011;10076;52.008;4.708;2023-04-03T09:26:56;2.30;;;0.77;;
19830;SDS011;10076;52.008;4.708;2023-04-03T09:29:27;1.97;;;0.73;;
19830;SDS011;10076;52.008;4.708;2023-04-03T09:31:56;0.60;;;0.60;;
19830;SDS011;10076;52.008;4.708;2023-04-03T09:34:26;1.90;;;0.90;;
19830;SDS011;10076;52.008;4.708;2023-04-03T09:36:54;3.53;;;1.00;;
19830;SDS011;10076;52.008;4.708;2023-04-03T09:39:25;1.37;;;0.80;;
19830;SDS011;10076;52.008;4.708;2023-04-03T09:41:57;0.90;;;0.90;;
19830;SDS011;10076;52.008;4.708;2023-04-03T09:44:26;0.93;;;0.70;;
19830;SDS011;10076;52.008;4.708;2023-04-03T09:47:00;1.17;;;1.00;;
19830;SDS011;10076;52.008;4.708;2023-04-03T09:49:43;0.85;;;0.80;;
19830;SDS011;10076;52.008;4.708;2023-04-03T09:52:18;1.67;;;0.70;;
19830;SDS011;10076;52.008;4.708;2023-04-03T09:54:53;1.17;;;0.75;;
19830;SDS011;10076;52.008;4.708;2023-04-03T09:57:18;1.27;;;0.93;;
19830;SDS011;10076;52.008;4.708;2023-04-03T10:04:37;1.67;;;0.98;;
19830;SDS011;10076;52.008;4.708;2023-04-03T10:07:25;1.88;;;0.93;;
19830;SDS011;10076;52.008;4.708;2023-04-03T10:09:59;1.35;;;0.80;;
19830;SDS011;10076;52.008;4.708;2023-04-03T10:12:28;2.10;;;0.80;;
19830;SDS011;10076;52.008;4.708;2023-04-03T10:14:59;3.50;;;0.80;;
19830;SDS011;10076;52.008;4.708;2023-04-03T10:17:32;1.95;;;0.70;;
19830;SDS011;10076;52.008;4.708;2023-04-03T10:22:56;2.35;;;0.70;;
19830;SDS011;10076;52.008;4.708;2023-04-03T10:25:32;1.15;;;0.95;;
19830;SDS011;10076;52.008;4.708;2023-04-03T10:36:02;3.72;;;0.70;;
19830;SDS011;10076;52.008;4.708;2023-04-03T10:39:15;1.48;;;0.85;;
19830;SDS011;10076;52.008;4.708;2023-04-03T10:52:57;2.15;;;0.60;;
19830;SDS011;10076;52.008;4.708;2023-04-03T10:55:41;0.57;;;0.57;;
19830;SDS011;10076;52.008;4.708;2023-04-03T10:58:21;0.90;;;0.70;;
19830;SDS011;10076;52.008;4.708;2023-04-03T11:00:54;0.52;;;0.52;;
19830;SDS011;10076;52.008;4.708;2023-04-03T11:03:30;1.17;;;0.40;;
19830;SDS011;10076;52.008;4.708;2023-04-03T11:06:01;0.90;;;0.70;;
19830;SDS011;10076;52.008;4.708;2023-04-03T11:11:29;0.90;;;0.73;;
19830;SDS011;10076;52.008;4.708;2023-04-03T11:16:36;0.85;;;0.52;;
19830;SDS011;10076;52.008;4.708;2023-04-03T11:22:11;0.50;;;0.47;;
19830;SDS011;10076;52.008;4.708;2023-04-03T11:24:46;1.40;;;0.68;;
19830;SDS011;10076;52.008;4.708;2023-04-03T11:27:22;2.47;;;0.60;;
19830;SDS011;10076;52.008;4.708;2023-04-03T11:29:49;1.05;;;0.50;;
19830;SDS011;10076;52.008;4.708;2023-04-03T11:32:34;2.13;;;0.50;;
19830;SDS011;10076;52.008;4.708;2023-04-03T11:35:02;0.95;;;0.50;;
19830;SDS011;10076;52.008;4.708;2023-04-03T11:37:44;0.70;;;0.50;;
19830;SDS011;10076;52.008;4.708;2023-04-03T11:42:40;1.77;;;0.50;;
19830;SDS011;10076;52.008;4.708;2023-04-03T11:45:22;0.40;;;0.40;;
19830;SDS011;10076;52.008;4.708;2023-04-03T11:47:55;0.63;;;0.40;;
19830;SDS011;10076;52.008;4.708;2023-04-03T11:50:39;1.38;;;0.43;;
19830;SDS011;10076;52.008;4.708;2023-04-03T12:05:57;0.65;;;0.60;;
19830;SDS011;10076;52.008;4.708;2023-04-03T12:19:27;1.08;;;0.60;;
19830;SDS011;10076;52.008;4.708;2023-04-03T12:22:09;0.68;;;0.55;;
19830;SDS011;10076;52.008;4.708;2023-04-03T12:24:40;0.60;;;0.60;;
19830;SDS011;10076;52.008;4.708;2023-04-03T12:29:53;0.70;;;0.55;;
19830;SDS011;10076;52.008;4.708;2023-04-03T12:35:17;1.73;;;0.70;;
19830;SDS011;10076;52.008;4.708;2023-04-03T12:41:17;0.77;;;0.68;;
19830;SDS011;10076;52.008;4.708;2023-04-03T12:43:46;0.95;;;0.90;;
19830;SDS011;10076;52.008;4.708;2023-04-03T12:46:48;1.35;;;0.70;;
19830;SDS011;10076;52.008;4.708;2023-04-03T12:52:00;1.52;;;0.80;;
19830;SDS011;10076;52.008;4.708;2023-04-03T12:54:32;0.82;;;0.70;;
19830;SDS011;10076;52.008;4.708;2023-04-03T13:02:46;1.13;;;0.68;;
19830;SDS011;10076;52.008;4.708;2023-04-03T13:05:17;0.93;;;0.75;;
19830;SDS011;10076;52.008;4.708;2023-04-03T13:07:44;1.00;;;0.80;;
19830;SDS011;10076;52.008;4.708;2023-04-03T13:10:15;1.85;;;0.90;;
19830;SDS011;10076;52.008;4.708;2023-04-03T13:12:52;1.10;;;0.85;;
19830;SDS011;10076;52.008;4.708;2023-04-03T13:15:21;0.90;;;0.80;;
19830;SDS011;10076;52.008;4.708;2023-04-03T13:17:51;1.67;;;0.70;;
19830;SDS011;10076;52.008;4.708;2023-04-03T13:20:28;1.58;;;0.65;;
19830;SDS011;10076;52.008;4.708;2023-04-03T13:23:02;1.15;;;0.70;;
19830;SDS011;10076;52.008;4.708;2023-04-03T13:25:31;1.73;;;0.70;;
19830;SDS011;10076;52.008;4.708;2023-04-03T13:27:59;1.10;;;0.77;;
19830;SDS011;10076;52.008;4.708;2023-04-03T13:33:02;1.38;;;0.70;;
19830;SDS011;10076;52.008;4.708;2023-04-03T13:35:36;1.05;;;0.80;;
19830;SDS011;10076;52.008;4.708;2023-04-03T13:38:06;1.67;;;0.80;;
19830;SDS011;10076;52.008;4.708;2023-04-03T13:40:51;2.05;;;0.98;;
19830;SDS011;10076;52.008;4.708;2023-04-03T13:43:40;1.45;;;0.80;;
19830;SDS011;10076;52.008;4.708;2023-04-03T13:48:47;1.00;;;0.90;;
19830;SDS011;10076;52.008;4.708;2023-04-03T13:51:21;2.88;;;2.15;;
19830;SDS011;10076;52.008;4.708;2023-04-03T13:53:57;3.17;;;1.42;;
19830;SDS011;10076;52.008;4.708;2023-04-03T14:01:32;1.48;;;1.20;;
19830;SDS011;10076;52.008;4.708;2023-04-03T14:04:11;1.23;;;1.00;;
19830;SDS011;10076;52.008;4.708;2023-04-03T14:06:44;1.45;;;0.98;;
19830;SDS011;10076;52.008;4.708;2023-04-03T14:09:10;0.80;;;0.70;;
19830;SDS011;10076;52.008;4.708;2023-04-03T14:11:37;2.92;;;1.33;;
19830;SDS011;10076;52.008;4.708;2023-04-03T14:14:05;0.65;;;0.65;;
19830;SDS011;10076;52.008;4.708;2023-04-03T14:16:37;1.63;;;1.40;;
19830;SDS011;10076;52.008;4.708;2023-04-03T14:19:05;2.10;;;1.20;;
19830;SDS011;10076;52.008;4.708;2023-04-03T14:21:31;1.50;;;0.70;;
19830;SDS011;10076;52.008;4.708;2023-04-03T14:23:57;2.85;;;1.42;;
19830;SDS011;10076;52.008;4.708;2023-04-03T14:26:23;1.33;;;1.02;;
19830;SDS011;10076;52.008;4.708;2023-04-03T14:28:52;4.22;;;2.60;;
19830;SDS011;10076;52.008;4.708;2023-04-03T14:31:19;2.63;;;2.00;;
19830;SDS011;10076;52.008;4.708;2023-04-03T14:33:45;1.48;;;1.27;;
19830;SDS011;10076;52.008;4.708;2023-04-03T14:36:15;2.67;;;2.47;;
19830;SDS011;10076;52.008;4.708;2023-04-03T14:38:51;1.30;;;1.08;;
19830;SDS011;10076;52.008;4.708;2023-04-03T14:41:19;1.25;;;0.90;;
19830;SDS011;10076;52.008;4.708;2023-04-03T14:43:47;3.75;;;1.20;;
19830;SDS011;10076;52.008;4.708;2023-04-03T14:48:42;2.05;;;1.10;;
19830;SDS011;10076;52.008;4.708;2023-04-03T14:51:11;2.33;;;1.10;;
19830;SDS011;10076;52.008;4.708;2023-04-03T14:53:40;1.40;;;0.80;;
19830;SDS011;10076;52.008;4.708;2023-04-03T14:56:11;1.33;;;0.90;;
19830;SDS011;10076;52.008;4.708;2023-04-03T14:58:40;1.20;;;0.90;;
19830;SDS011;10076;52.008;4.708;2023-04-03T15:01:06;2.20;;;0.90;;
19830;SDS011;10076;52.008;4.708;2023-04-03T15:03:31;1.42;;;0.70;;
19830;SDS011;10076;52.008;4.708;2023-04-03T15:05:57;1.83;;;0.98;;
19830;SDS011;10076;52.008;4.708;2023-04-03T15:08:24;1.88;;;1.13;;
19830;SDS011;10076;52.008;4.708;2023-04-03T15:10:54;1.38;;;0.80;;
19830;SDS011;10076;52.008;4.708;2023-04-03T15:13:20;1.25;;;0.73;;
19830;SDS011;10076;52.008;4.708;2023-04-03T15:15:46;1.02;;;0.80;;
19830;SDS011;10076;52.008;4.708;2023-04-03T15:18:20;2.83;;;1.08;;
19830;SDS011;10076;52.008;4.708;2023-04-03T15:20:48;1.10;;;1.00;;
19830;SDS011;10076;52.008;4.708;2023-04-03T15:23:14;1.95;;;0.93;;
19830;SDS011;10076;52.008;4.708;2023-04-03T15:25:47;2.50;;;1.10;;
19830;SDS011;10076;52.008;4.708;2023-04-03T15:28:32;1.90;;;1.08;;
19830;SDS011;10076;52.008;4.708;2023-04-03T15:31:00;1.98;;;1.05;;
19830;SDS011;10076;52.008;4.708;2023-04-03T15:33:26;3.20;;;1.13;;
19830;SDS011;10076;52.008;4.708;2023-04-03T15:35:52;1.48;;;1.00;;
19830;SDS011;10076;52.008;4.708;2023-04-03T15:38:17;1.65;;;1.17;;
19830;SDS011;10076;52.008;4.708;2023-04-03T15:40:42;2.75;;;0.85;;
19830;SDS011;10076;52.008;4.708;2023-04-03T15:43:08;2.05;;;1.00;;
19830;SDS011;10076;52.008;4.708;2023-04-03T15:45:34;1.25;;;0.90;;
19830;SDS011;10076;52.008;4.708;2023-04-03T15:48:01;1.15;;;0.82;;
19830;SDS011;10076;52.008;4.708;2023-04-03T15:50:28;1.77;;;1.40;;
19830;SDS011;10076;52.008;4.708;2023-04-03T15:52:53;2.05;;;1.40;;
19830;SDS011;10076;52.008;4.708;2023-04-03T15:55:23;2.17;;;1.63;;
19830;SDS011;10076;52.008;4.708;2023-04-03T15:57:50;2.60;;;1.13;;
19830;SDS011;10076;52.008;4.708;2023-04-03T16:00:16;1.80;;;0.90;;
19830;SDS011;10076;52.008;4.708;2023-04-03T16:02:42;3.08;;;1.15;;
19830;SDS011;10076;52.008;4.708;2023-04-03T16:05:10;1.73;;;1.00;;
19830;SDS011;10076;52.008;4.708;2023-04-03T16:07:37;2.15;;;1.17;;
19830;SDS011;10076;52.008;4.708;2023-04-03T16:10:03;2.13;;;1.00;;
19830;SDS011;10076;52.008;4.708;2023-04-03T16:12:30;1.13;;;0.98;;
19830;SDS011;10076;52.008;4.708;2023-04-03T16:14:55;2.33;;;1.00;;
19830;SDS011;10076;52.008;4.708;2023-04-03T16:17:20;2.30;;;1.10;;
19830;SDS011;10076;52.008;4.708;2023-04-03T16:19:46;2.20;;;1.10;;
19830;SDS011;10076;52.008;4.708;2023-04-03T16:22:11;1.60;;;1.00;;
19830;SDS011;10076;52.008;4.708;2023-04-03T16:24:36;2.60;;;1.38;;
19830;SDS011;10076;52.008;4.708;2023-04-03T16:27:03;4.00;;;1.27;;
19830;SDS011;10076;52.008;4.708;2023-04-03T16:29:28;1.23;;;0.98;;
19830;SDS011;10076;52.008;4.708;2023-04-03T16:31:53;1.23;;;0.82;;
19830;SDS011;10076;52.008;4.708;2023-04-03T16:34:21;2.97;;;1.02;;
19830;SDS011;10076;52.008;4.708;2023-04-03T16:36:46;1.77;;;1.00;;
19830;SDS011;10076;52.008;4.708;2023-04-03T16:39:11;4.28;;;2.58;;
19830;SDS011;10076;52.008;4.708;2023-04-03T16:41:37;2.17;;;1.92;;
19830;SDS011;10076;52.008;4.708;2023-04-03T16:44:02;2.72;;;1.20;;
19830;SDS011;10076;52.008;4.708;2023-04-03T16:46:28;1.63;;;0.98;;